sensor_id;sensor_type;location;lat;lon;timestamp;P1;durP1;ratioP1;P2;durP2;ratioP2
16685;SDS011;8456;51.136;4.210;2022-09-17T00:00:21;14.13;;;2.23;;
16685;SDS011;8456;51.136;4.210;2022-09-17T00:02:51;12.53;;;2.00;;
16685;SDS011;8456;51.136;4.210;2022-09-17T00:05:23;11.57;;;2.20;;
16685;SDS011;8456;51.136;4.210;2022-09-17T00:07:50;7.93;;;1.50;;
16685;SDS011;8456;51.136;4.210;2022-09-17T00:10:16;10.27;;;2.20;;
16685;SDS011;8456;51.136;4.210;2022-09-17T00:12:44;9.57;;;1.93;;
16685;SDS011;8456;51.136;4.210;2022-09-17T00:15:10;9.57;;;1.83;;
16685;SDS011;8456;51.136;4.210;2022-09-17T00:17:36;8.27;;;1.90;;
16685;SDS011;8456;51.136;4.210;2022-09-17T00:20:02;14.87;;;1.63;;
16685;SDS011;8456;51.136;4.210;2022-09-17T00:22:29;10.67;;;2.20;;
16685;SDS011;8456;51.136;4.210;2022-09-17T00:24:55;9.43;;;2.00;;
16685;SDS011;8456;51.136;4.210;2022-09-17T00:27:21;11.17;;;2.63;;
16685;SDS011;8456;51.136;4.210;2022-09-17T00:29:47;10.93;;;2.30;;
16685;SDS011;8456;51.136;4.210;2022-09-17T00:32:12;15.40;;;2.27;;
16685;SDS011;8456;51.136;4.210;2022-09-17T00:34:38;8.33;;;2.17;;
16685;SDS011;8456;51.136;4.210;2022-09-17T00:37:04;11.17;;;2.27;;
16685;SDS011;8456;51.136;4.210;2022-09-17T00:39:30;10.20;;;2.10;;
16685;SDS011;8456;51.136;4.210;2022-09-17T00:41:55;7.70;;;1.90;;
16685;SDS011;8456;51.136;4.210;2022-09-17T00:47:23;17.20;;;2.27;;
16685;SDS011;8456;51.136;4.210;2022-09-17T00:50:14;11.23;;;2.03;;
16685;SDS011;8456;51.136;4.210;2022-09-17T00:52:52;11.20;;;2.03;;
16685;SDS011;8456;51.136;4.210;2022-09-17T00:55:27;13.50;;;2.17;;
16685;SDS011;8456;51.136;4.210;2022-09-17T00:57:54;11.57;;;2.43;;
16685;SDS011;8456;51.136;4.210;2022-09-17T01:00:23;14.70;;;2.17;;
16685;SDS011;8456;51.136;4.210;2022-09-17T01:02:50;9.30;;;1.50;;
16685;SDS011;8456;51.136;4.210;2022-09-17T01:05:17;7.30;;;1.43;;
16685;SDS011;8456;51.136;4.210;2022-09-17T01:08:01;9.53;;;1.97;;
16685;SDS011;8456;51.136;4.210;2022-09-17T01:19:05;12.57;;;1.83;;
16685;SDS011;8456;51.136;4.210;2022-09-17T01:24:04;15.93;;;2.27;;
16685;SDS011;8456;51.136;4.210;2022-09-17T01:32:31;19.70;;;2.50;;
16685;SDS011;8456;51.136;4.210;2022-09-17T01:35:20;12.80;;;2.07;;
16685;SDS011;8456;51.136;4.210;2022-09-17T01:43:30;19.40;;;2.97;;
16685;SDS011;8456;51.136;4.210;2022-09-17T01:48:34;16.83;;;2.60;;
16685;SDS011;8456;51.136;4.210;2022-09-17T01:51:06;16.23;;;2.33;;
16685;SDS011;8456;51.136;4.210;2022-09-17T01:54:18;12.87;;;3.07;;
16685;SDS011;8456;51.136;4.210;2022-09-17T01:56:35;19.27;;;3.10;;
16685;SDS011;8456;51.136;4.210;2022-09-17T01:59:11;18.67;;;3.33;;
16685;SDS011;8456;51.136;4.210;2022-09-17T02:01:53;16.17;;;2.70;;
16685;SDS011;8456;51.136;4.210;2022-09-17T02:04:25;17.57;;;2.90;;
16685;SDS011;8456;51.136;4.210;2022-09-17T02:07:01;18.97;;;3.03;;
16685;SDS011;8456;51.136;4.210;2022-09-17T02:09:37;16.37;;;3.57;;
16685;SDS011;8456;51.136;4.210;2022-09-17T02:12:09;16.93;;;3.40;;
16685;SDS011;8456;51.136;4.210;2022-09-17T02:14:41;18.30;;;2.97;;
16685;SDS011;8456;51.136;4.210;2022-09-17T02:17:20;13.03;;;2.90;;
16685;SDS011;8456;51.136;4.210;2022-09-17T02:19:53;10.17;;;2.67;;
16685;SDS011;8456;51.136;4.210;2022-09-17T02:22:27;19.10;;;2.73;;
16685;SDS011;8456;51.136;4.210;2022-09-17T02:25:21;16.10;;;2.83;;
16685;SDS011;8456;51.136;4.210;2022-09-17T02:27:50;19.77;;;2.93;;
16685;SDS011;8456;51.136;4.210;2022-09-17T02:30:22;14.77;;;3.10;;
16685;SDS011;8456;51.136;4.210;2022-09-17T02:32:48;21.17;;;3.10;;
16685;SDS011;8456;51.136;4.210;2022-09-17T02:35:15;17.13;;;2.67;;
16685;SDS011;8456;51.136;4.210;2022-09-17T02:37:41;12.47;;;2.00;;
16685;SDS011;8456;51.136;4.210;2022-09-17T02:40:09;15.37;;;3.10;;
16685;SDS011;8456;51.136;4.210;2022-09-17T02:58:44;17.73;;;2.60;;
16685;SDS011;8456;51.136;4.210;2022-09-17T03:01:40;16.87;;;2.80;;
16685;SDS011;8456;51.136;4.210;2022-09-17T03:04:07;18.13;;;2.70;;
16685;SDS011;8456;51.136;4.210;2022-09-17T03:06:36;18.97;;;2.70;;
16685;SDS011;8456;51.136;4.210;2022-09-17T03:09:03;14.67;;;2.57;;
16685;SDS011;8456;51.136;4.210;2022-09-17T03:11:29;10.37;;;2.37;;
16685;SDS011;8456;51.136;4.210;2022-09-17T03:13:55;13.60;;;2.13;;
16685;SDS011;8456;51.136;4.210;2022-09-17T03:16:22;14.33;;;2.40;;
16685;SDS011;8456;51.136;4.210;2022-09-17T03:18:49;16.33;;;2.77;;
16685;SDS011;8456;51.136;4.210;2022-09-17T03:21:14;19.30;;;3.07;;
16685;SDS011;8456;51.136;4.210;2022-09-17T03:23:40;12.40;;;3.27;;
16685;SDS011;8456;51.136;4.210;2022-09-17T03:26:06;16.00;;;3.47;;
16685;SDS011;8456;51.136;4.210;2022-09-17T03:28:32;19.93;;;3.50;;
16685;SDS011;8456;51.136;4.210;2022-09-17T03:30:58;24.77;;;4.17;;
16685;SDS011;8456;51.136;4.210;2022-09-17T03:33:24;20.83;;;3.60;;
16685;SDS011;8456;51.136;4.210;2022-09-17T03:35:50;18.53;;;3.80;;
16685;SDS011;8456;51.136;4.210;2022-09-17T03:38:15;24.33;;;4.23;;
16685;SDS011;8456;51.136;4.210;2022-09-17T03:40:41;19.33;;;3.57;;
16685;SDS011;8456;51.136;4.210;2022-09-17T03:43:07;22.50;;;4.93;;
16685;SDS011;8456;51.136;4.210;2022-09-17T03:45:33;30.00;;;4.60;;
16685;SDS011;8456;51.136;4.210;2022-09-17T03:47:59;15.23;;;4.20;;
16685;SDS011;8456;51.136;4.210;2022-09-17T03:50:24;21.63;;;3.87;;
16685;SDS011;8456;51.136;4.210;2022-09-17T03:52:50;14.83;;;4.20;;
16685;SDS011;8456;51.136;4.210;2022-09-17T03:55:16;15.80;;;4.00;;
16685;SDS011;8456;51.136;4.210;2022-09-17T03:57:42;21.07;;;4.20;;
16685;SDS011;8456;51.136;4.210;2022-09-17T04:00:08;18.10;;;4.17;;
16685;SDS011;8456;51.136;4.210;2022-09-17T04:02:39;18.00;;;4.20;;
16685;SDS011;8456;51.136;4.210;2022-09-17T04:05:05;23.63;;;4.47;;
16685;SDS011;8456;51.136;4.210;2022-09-17T04:07:32;18.63;;;4.57;;
16685;SDS011;8456;51.136;4.210;2022-09-17T04:09:57;29.10;;;4.70;;
16685;SDS011;8456;51.136;4.210;2022-09-17T04:12:23;20.53;;;4.20;;
16685;SDS011;8456;51.136;4.210;2022-09-17T04:14:49;23.20;;;4.43;;
16685;SDS011;8456;51.136;4.210;2022-09-17T04:17:14;24.23;;;4.70;;
16685;SDS011;8456;51.136;4.210;2022-09-17T04:19:42;30.30;;;5.27;;
16685;SDS011;8456;51.136;4.210;2022-09-17T04:22:08;23.47;;;4.63;;
16685;SDS011;8456;51.136;4.210;2022-09-17T04:24:34;16.43;;;4.43;;
16685;SDS011;8456;51.136;4.210;2022-09-17T04:27:00;16.00;;;4.23;;
16685;SDS011;8456;51.136;4.210;2022-09-17T04:29:25;23.60;;;5.37;;
16685;SDS011;8456;51.136;4.210;2022-09-17T04:31:51;12.43;;;4.60;;
16685;SDS011;8456;51.136;4.210;2022-09-17T04:34:17;20.87;;;4.30;;
16685;SDS011;8456;51.136;4.210;2022-09-17T04:36:43;30.07;;;5.30;;
16685;SDS011;8456;51.136;4.210;2022-09-17T04:39:09;34.00;;;5.43;;
16685;SDS011;8456;51.136;4.210;2022-09-17T04:41:34;24.80;;;4.83;;
16685;SDS011;8456;51.136;4.210;2022-09-17T04:44:00;30.67;;;5.33;;
16685;SDS011;8456;51.136;4.210;2022-09-17T04:46:26;17.63;;;4.80;;
16685;SDS011;8456;51.136;4.210;2022-09-17T04:48:52;16.03;;;4.40;;
16685;SDS011;8456;51.136;4.210;2022-09-17T04:51:17;22.00;;;5.33;;
16685;SDS011;8456;51.136;4.210;2022-09-17T04:53:43;26.47;;;4.83;;
16685;SDS011;8456;51.136;4.210;2022-09-17T04:56:09;23.43;;;5.27;;
16685;SDS011;8456;51.136;4.210;2022-09-17T04:58:35;23.47;;;4.70;;
16685;SDS011;8456;51.136;4.210;2022-09-17T05:01:01;24.80;;;5.13;;
16685;SDS011;8456;51.136;4.210;2022-09-17T05:03:26;21.13;;;4.97;;
16685;SDS011;8456;51.136;4.210;2022-09-17T05:05:52;26.77;;;6.83;;
16685;SDS011;8456;51.136;4.210;2022-09-17T05:08:18;20.47;;;5.43;;
16685;SDS011;8456;51.136;4.210;2022-09-17T05:10:44;21.67;;;4.20;;
16685;SDS011;8456;51.136;4.210;2022-09-17T05:13:09;18.23;;;3.67;;
16685;SDS011;8456;51.136;4.210;2022-09-17T05:15:35;19.47;;;3.07;;
16685;SDS011;8456;51.136;4.210;2022-09-17T05:18:01;16.50;;;2.50;;
16685;SDS011;8456;51.136;4.210;2022-09-17T05:20:27;14.83;;;2.80;;
16685;SDS011;8456;51.136;4.210;2022-09-17T05:22:52;19.80;;;3.60;;
16685;SDS011;8456;51.136;4.210;2022-09-17T05:25:19;11.23;;;2.70;;
16685;SDS011;8456;51.136;4.210;2022-09-17T05:27:49;14.37;;;2.97;;
16685;SDS011;8456;51.136;4.210;2022-09-17T05:30:16;11.57;;;2.90;;
16685;SDS011;8456;51.136;4.210;2022-09-17T05:32:42;10.97;;;3.10;;
16685;SDS011;8456;51.136;4.210;2022-09-17T05:35:08;15.27;;;3.07;;
16685;SDS011;8456;51.136;4.210;2022-09-17T05:37:35;14.57;;;3.43;;
16685;SDS011;8456;51.136;4.210;2022-09-17T05:40:02;15.60;;;3.07;;
16685;SDS011;8456;51.136;4.210;2022-09-17T05:42:30;15.33;;;2.97;;
16685;SDS011;8456;51.136;4.210;2022-09-17T05:44:55;8.50;;;2.83;;
16685;SDS011;8456;51.136;4.210;2022-09-17T05:47:23;24.87;;;3.30;;
16685;SDS011;8456;51.136;4.210;2022-09-17T05:49:48;12.53;;;2.60;;
16685;SDS011;8456;51.136;4.210;2022-09-17T05:52:14;11.90;;;2.43;;
16685;SDS011;8456;51.136;4.210;2022-09-17T05:54:40;13.43;;;2.60;;
16685;SDS011;8456;51.136;4.210;2022-09-17T05:57:06;14.53;;;3.13;;
16685;SDS011;8456;51.136;4.210;2022-09-17T05:59:32;15.13;;;3.60;;
16685;SDS011;8456;51.136;4.210;2022-09-17T06:01:58;12.10;;;2.63;;
16685;SDS011;8456;51.136;4.210;2022-09-17T06:04:24;11.80;;;2.83;;
16685;SDS011;8456;51.136;4.210;2022-09-17T06:06:49;10.30;;;1.97;;
16685;SDS011;8456;51.136;4.210;2022-09-17T06:09:15;12.60;;;2.03;;
16685;SDS011;8456;51.136;4.210;2022-09-17T06:11:41;11.50;;;2.20;;
16685;SDS011;8456;51.136;4.210;2022-09-17T06:14:07;9.67;;;2.13;;
16685;SDS011;8456;51.136;4.210;2022-09-17T06:16:33;6.87;;;2.23;;
16685;SDS011;8456;51.136;4.210;2022-09-17T06:18:59;12.23;;;2.90;;
16685;SDS011;8456;51.136;4.210;2022-09-17T06:21:25;9.00;;;2.50;;
16685;SDS011;8456;51.136;4.210;2022-09-17T06:23:51;9.97;;;2.93;;
16685;SDS011;8456;51.136;4.210;2022-09-17T06:26:17;14.27;;;2.63;;
16685;SDS011;8456;51.136;4.210;2022-09-17T06:28:43;8.03;;;2.70;;
16685;SDS011;8456;51.136;4.210;2022-09-17T06:31:09;10.40;;;2.23;;
16685;SDS011;8456;51.136;4.210;2022-09-17T06:33:37;11.90;;;2.93;;
16685;SDS011;8456;51.136;4.210;2022-09-17T06:36:06;14.23;;;2.30;;
16685;SDS011;8456;51.136;4.210;2022-09-17T06:38:35;12.77;;;3.20;;
16685;SDS011;8456;51.136;4.210;2022-09-17T06:41:01;13.17;;;2.00;;
16685;SDS011;8456;51.136;4.210;2022-09-17T06:43:27;13.33;;;2.17;;
16685;SDS011;8456;51.136;4.210;2022-09-17T06:45:53;11.37;;;2.30;;
16685;SDS011;8456;51.136;4.210;2022-09-17T06:48:21;13.20;;;2.47;;
16685;SDS011;8456;51.136;4.210;2022-09-17T06:50:48;16.63;;;2.90;;
16685;SDS011;8456;51.136;4.210;2022-09-17T06:53:14;15.83;;;2.57;;
16685;SDS011;8456;51.136;4.210;2022-09-17T06:55:40;7.90;;;2.10;;
16685;SDS011;8456;51.136;4.210;2022-09-17T06:58:06;10.43;;;2.80;;
16685;SDS011;8456;51.136;4.210;2022-09-17T07:00:32;13.87;;;2.57;;
16685;SDS011;8456;51.136;4.210;2022-09-17T07:02:59;12.10;;;2.33;;
16685;SDS011;8456;51.136;4.210;2022-09-17T07:05:25;13.73;;;2.43;;
16685;SDS011;8456;51.136;4.210;2022-09-17T07:07:53;19.97;;;2.90;;
16685;SDS011;8456;51.136;4.210;2022-09-17T07:10:19;12.80;;;2.93;;
16685;SDS011;8456;51.136;4.210;2022-09-17T07:12:45;15.90;;;2.53;;
16685;SDS011;8456;51.136;4.210;2022-09-17T07:15:11;7.73;;;2.07;;
16685;SDS011;8456;51.136;4.210;2022-09-17T07:17:40;10.73;;;2.10;;
16685;SDS011;8456;51.136;4.210;2022-09-17T07:20:08;10.57;;;2.30;;
16685;SDS011;8456;51.136;4.210;2022-09-17T07:22:35;11.83;;;2.87;;
16685;SDS011;8456;51.136;4.210;2022-09-17T07:25:01;9.43;;;2.47;;
16685;SDS011;8456;51.136;4.210;2022-09-17T07:27:27;11.07;;;2.40;;
16685;SDS011;8456;51.136;4.210;2022-09-17T07:29:54;9.80;;;1.93;;
16685;SDS011;8456;51.136;4.210;2022-09-17T07:32:20;12.17;;;2.77;;
16685;SDS011;8456;51.136;4.210;2022-09-17T07:34:46;8.13;;;1.97;;
16685;SDS011;8456;51.136;4.210;2022-09-17T07:37:13;12.57;;;2.87;;
16685;SDS011;8456;51.136;4.210;2022-09-17T07:39:40;7.67;;;1.97;;
16685;SDS011;8456;51.136;4.210;2022-09-17T07:42:06;8.83;;;2.10;;
16685;SDS011;8456;51.136;4.210;2022-09-17T07:44:32;10.10;;;2.87;;
16685;SDS011;8456;51.136;4.210;2022-09-17T07:46:58;13.27;;;2.70;;
16685;SDS011;8456;51.136;4.210;2022-09-17T07:49:24;10.00;;;2.33;;
16685;SDS011;8456;51.136;4.210;2022-09-17T07:51:50;13.40;;;3.10;;
16685;SDS011;8456;51.136;4.210;2022-09-17T07:54:16;14.43;;;2.60;;
16685;SDS011;8456;51.136;4.210;2022-09-17T07:56:42;11.70;;;2.40;;
16685;SDS011;8456;51.136;4.210;2022-09-17T07:59:09;15.97;;;2.20;;
16685;SDS011;8456;51.136;4.210;2022-09-17T08:01:34;13.93;;;2.30;;
16685;SDS011;8456;51.136;4.210;2022-09-17T08:04:00;11.10;;;2.30;;
16685;SDS011;8456;51.136;4.210;2022-09-17T08:06:27;10.57;;;2.47;;
16685;SDS011;8456;51.136;4.210;2022-09-17T08:08:54;12.17;;;2.00;;
16685;SDS011;8456;51.136;4.210;2022-09-17T08:11:22;10.53;;;1.63;;
16685;SDS011;8456;51.136;4.210;2022-09-17T08:13:50;9.03;;;2.43;;
16685;SDS011;8456;51.136;4.210;2022-09-17T08:16:17;10.40;;;1.73;;
16685;SDS011;8456;51.136;4.210;2022-09-17T08:18:44;12.03;;;2.43;;
16685;SDS011;8456;51.136;4.210;2022-09-17T08:21:14;6.27;;;1.90;;
16685;SDS011;8456;51.136;4.210;2022-09-17T08:23:42;7.60;;;1.87;;
16685;SDS011;8456;51.136;4.210;2022-09-17T08:26:16;6.50;;;1.43;;
16685;SDS011;8456;51.136;4.210;2022-09-17T08:28:49;8.20;;;1.53;;
16685;SDS011;8456;51.136;4.210;2022-09-17T08:31:19;5.90;;;1.40;;
16685;SDS011;8456;51.136;4.210;2022-09-17T08:33:45;8.37;;;1.87;;
16685;SDS011;8456;51.136;4.210;2022-09-17T08:36:12;8.93;;;2.10;;
16685;SDS011;8456;51.136;4.210;2022-09-17T08:38:39;6.37;;;1.20;;
16685;SDS011;8456;51.136;4.210;2022-09-17T08:46:24;6.70;;;2.07;;
16685;SDS011;8456;51.136;4.210;2022-09-17T08:51:42;6.90;;;1.97;;
16685;SDS011;8456;51.136;4.210;2022-09-17T09:00:08;7.67;;;1.30;;
16685;SDS011;8456;51.136;4.210;2022-09-17T09:05:47;8.47;;;1.27;;
16685;SDS011;8456;51.136;4.210;2022-09-17T09:11:03;4.77;;;1.23;;
16685;SDS011;8456;51.136;4.210;2022-09-17T09:13:42;9.53;;;1.83;;
16685;SDS011;8456;51.136;4.210;2022-09-17T09:16:17;9.13;;;1.67;;
16685;SDS011;8456;51.136;4.210;2022-09-17T09:18:47;5.63;;;1.20;;
16685;SDS011;8456;51.136;4.210;2022-09-17T09:21:25;6.03;;;1.53;;
16685;SDS011;8456;51.136;4.210;2022-09-17T09:23:58;5.13;;;1.33;;
16685;SDS011;8456;51.136;4.210;2022-09-17T09:26:44;7.13;;;1.30;;
16685;SDS011;8456;51.136;4.210;2022-09-17T09:34:26;6.27;;;1.70;;
16685;SDS011;8456;51.136;4.210;2022-09-17T09:37:04;5.73;;;1.70;;
16685;SDS011;8456;51.136;4.210;2022-09-17T09:39:41;7.70;;;1.30;;
16685;SDS011;8456;51.136;4.210;2022-09-17T09:42:18;7.63;;;2.10;;
16685;SDS011;8456;51.136;4.210;2022-09-17T09:44:50;10.53;;;1.63;;
16685;SDS011;8456;51.136;4.210;2022-09-17T09:52:59;7.97;;;1.73;;
16685;SDS011;8456;51.136;4.210;2022-09-17T10:00:56;7.33;;;1.70;;
16685;SDS011;8456;51.136;4.210;2022-09-17T10:03:25;6.03;;;1.10;;
16685;SDS011;8456;51.136;4.210;2022-09-17T10:06:06;7.53;;;1.20;;
16685;SDS011;8456;51.136;4.210;2022-09-17T10:08:35;4.13;;;1.00;;
16685;SDS011;8456;51.136;4.210;2022-09-17T10:11:03;3.80;;;0.70;;
16685;SDS011;8456;51.136;4.210;2022-09-17T10:13:32;6.90;;;1.10;;
16685;SDS011;8456;51.136;4.210;2022-09-17T10:18:49;2.50;;;0.77;;
16685;SDS011;8456;51.136;4.210;2022-09-17T10:21:32;6.87;;;1.63;;
16685;SDS011;8456;51.136;4.210;2022-09-17T10:24:00;8.50;;;1.40;;
16685;SDS011;8456;51.136;4.210;2022-09-17T10:26:31;5.87;;;1.13;;
16685;SDS011;8456;51.136;4.210;2022-09-17T10:29:01;9.43;;;1.13;;
16685;SDS011;8456;51.136;4.210;2022-09-17T10:34:17;7.00;;;1.60;;
16685;SDS011;8456;51.136;4.210;2022-09-17T10:36:54;6.10;;;0.90;;
16685;SDS011;8456;51.136;4.210;2022-09-17T10:44:26;6.63;;;1.93;;
16685;SDS011;8456;51.136;4.210;2022-09-17T10:47:00;12.03;;;1.73;;
16685;SDS011;8456;51.136;4.210;2022-09-17T10:52:05;7.23;;;1.30;;
16685;SDS011;8456;51.136;4.210;2022-09-17T10:54:40;6.57;;;1.33;;
16685;SDS011;8456;51.136;4.210;2022-09-17T10:57:13;7.23;;;1.23;;
16685;SDS011;8456;51.136;4.210;2022-09-17T11:00:32;8.93;;;1.57;;
16685;SDS011;8456;51.136;4.210;2022-09-17T11:08:35;4.90;;;1.30;;
16685;SDS011;8456;51.136;4.210;2022-09-17T11:19:42;8.27;;;1.83;;
16685;SDS011;8456;51.136;4.210;2022-09-17T11:31:15;8.50;;;1.93;;
16685;SDS011;8456;51.136;4.210;2022-09-17T11:36:28;11.83;;;1.70;;
16685;SDS011;8456;51.136;4.210;2022-09-17T11:39:06;9.90;;;1.93;;
16685;SDS011;8456;51.136;4.210;2022-09-17T11:41:44;12.37;;;1.87;;
16685;SDS011;8456;51.136;4.210;2022-09-17T11:48:09;11.87;;;2.13;;
16685;SDS011;8456;51.136;4.210;2022-09-17T11:50:18;9.27;;;1.77;;
16685;SDS011;8456;51.136;4.210;2022-09-17T11:56:00;11.07;;;1.97;;
16685;SDS011;8456;51.136;4.210;2022-09-17T11:58:43;13.33;;;2.57;;
16685;SDS011;8456;51.136;4.210;2022-09-17T12:06:49;10.67;;;2.50;;
16685;SDS011;8456;51.136;4.210;2022-09-17T12:09:22;12.13;;;2.43;;
16685;SDS011;8456;51.136;4.210;2022-09-17T12:12:08;15.73;;;2.20;;
16685;SDS011;8456;51.136;4.210;2022-09-17T12:14:48;12.20;;;2.47;;
16685;SDS011;8456;51.136;4.210;2022-09-17T12:17:41;11.00;;;2.80;;
16685;SDS011;8456;51.136;4.210;2022-09-17T12:20:26;10.00;;;2.10;;
16685;SDS011;8456;51.136;4.210;2022-09-17T12:22:56;8.17;;;1.77;;
16685;SDS011;8456;51.136;4.210;2022-09-17T12:25:25;7.57;;;2.07;;
16685;SDS011;8456;51.136;4.210;2022-09-17T12:28:04;10.50;;;2.20;;
16685;SDS011;8456;51.136;4.210;2022-09-17T12:31:01;7.87;;;1.90;;
16685;SDS011;8456;51.136;4.210;2022-09-17T12:33:39;10.97;;;2.70;;
16685;SDS011;8456;51.136;4.210;2022-09-17T12:36:15;13.57;;;2.67;;
16685;SDS011;8456;51.136;4.210;2022-09-17T12:41:41;13.97;;;2.60;;
16685;SDS011;8456;51.136;4.210;2022-09-17T12:44:15;11.20;;;2.27;;
16685;SDS011;8456;51.136;4.210;2022-09-17T13:00:20;11.43;;;2.97;;
16685;SDS011;8456;51.136;4.210;2022-09-17T13:13:48;10.33;;;2.30;;
16685;SDS011;8456;51.136;4.210;2022-09-17T13:21:51;5.43;;;1.10;;
16685;SDS011;8456;51.136;4.210;2022-09-17T13:24:23;5.73;;;1.47;;
16685;SDS011;8456;51.136;4.210;2022-09-17T13:26:51;8.77;;;1.60;;
16685;SDS011;8456;51.136;4.210;2022-09-17T13:32:40;4.50;;;2.03;;
16685;SDS011;8456;51.136;4.210;2022-09-17T13:40:35;4.57;;;1.10;;
16685;SDS011;8456;51.136;4.210;2022-09-17T13:45:27;2.93;;;0.80;;
16685;SDS011;8456;51.136;4.210;2022-09-17T13:47:58;4.87;;;1.13;;
16685;SDS011;8456;51.136;4.210;2022-09-17T13:50:36;5.03;;;1.00;;
16685;SDS011;8456;51.136;4.210;2022-09-17T13:53:07;4.03;;;1.00;;
16685;SDS011;8456;51.136;4.210;2022-09-17T13:55:34;9.03;;;1.47;;
16685;SDS011;8456;51.136;4.210;2022-09-17T13:58:02;8.73;;;1.70;;
16685;SDS011;8456;51.136;4.210;2022-09-17T14:21:28;6.37;;;1.90;;
16685;SDS011;8456;51.136;4.210;2022-09-17T14:24:03;5.30;;;1.50;;
16685;SDS011;8456;51.136;4.210;2022-09-17T14:26:54;5.97;;;1.20;;
16685;SDS011;8456;51.136;4.210;2022-09-17T14:32:06;5.90;;;0.93;;
16685;SDS011;8456;51.136;4.210;2022-09-17T14:34:39;7.33;;;1.37;;
16685;SDS011;8456;51.136;4.210;2022-09-17T14:37:07;4.23;;;1.13;;
16685;SDS011;8456;51.136;4.210;2022-09-17T14:39:37;7.13;;;1.13;;
16685;SDS011;8456;51.136;4.210;2022-09-17T14:42:06;5.77;;;1.10;;
16685;SDS011;8456;51.136;4.210;2022-09-17T14:44:46;6.70;;;1.00;;
16685;SDS011;8456;51.136;4.210;2022-09-17T14:47:23;4.87;;;1.57;;
16685;SDS011;8456;51.136;4.210;2022-09-17T14:49:50;8.80;;;1.30;;
16685;SDS011;8456;51.136;4.210;2022-09-17T14:52:18;4.27;;;1.30;;
16685;SDS011;8456;51.136;4.210;2022-09-17T14:54:47;6.07;;;1.40;;
16685;SDS011;8456;51.136;4.210;2022-09-17T14:57:20;4.20;;;1.10;;
16685;SDS011;8456;51.136;4.210;2022-09-17T14:59:52;10.23;;;1.53;;
16685;SDS011;8456;51.136;4.210;2022-09-17T15:02:22;3.67;;;1.47;;
16685;SDS011;8456;51.136;4.210;2022-09-17T15:04:57;6.00;;;1.70;;
16685;SDS011;8456;51.136;4.210;2022-09-17T15:07:24;8.40;;;1.60;;
16685;SDS011;8456;51.136;4.210;2022-09-17T15:09:51;7.77;;;2.03;;
16685;SDS011;8456;51.136;4.210;2022-09-17T15:12:21;5.37;;;1.23;;
16685;SDS011;8456;51.136;4.210;2022-09-17T15:14:52;5.47;;;1.30;;
16685;SDS011;8456;51.136;4.210;2022-09-17T15:17:20;4.17;;;1.17;;
16685;SDS011;8456;51.136;4.210;2022-09-17T15:19:47;7.93;;;1.23;;
16685;SDS011;8456;51.136;4.210;2022-09-17T15:22:16;7.77;;;1.67;;
16685;SDS011;8456;51.136;4.210;2022-09-17T15:27:21;7.77;;;1.90;;
16685;SDS011;8456;51.136;4.210;2022-09-17T15:30:30;10.43;;;1.90;;
16685;SDS011;8456;51.136;4.210;2022-09-17T15:32:58;9.47;;;1.97;;
16685;SDS011;8456;51.136;4.210;2022-09-17T15:35:31;9.53;;;1.80;;
16685;SDS011;8456;51.136;4.210;2022-09-17T15:37:58;13.53;;;3.10;;
16685;SDS011;8456;51.136;4.210;2022-09-17T15:40:33;13.07;;;2.80;;
16685;SDS011;8456;51.136;4.210;2022-09-17T15:45:43;9.03;;;2.07;;
16685;SDS011;8456;51.136;4.210;2022-09-17T15:51:02;7.90;;;2.40;;
16685;SDS011;8456;51.136;4.210;2022-09-17T15:53:34;13.17;;;2.00;;
16685;SDS011;8456;51.136;4.210;2022-09-17T16:11:17;14.87;;;3.67;;
16685;SDS011;8456;51.136;4.210;2022-09-17T16:13:50;14.00;;;3.60;;
16685;SDS011;8456;51.136;4.210;2022-09-17T16:16:19;11.57;;;3.20;;
16685;SDS011;8456;51.136;4.210;2022-09-17T16:18:47;13.27;;;5.23;;
16685;SDS011;8456;51.136;4.210;2022-09-17T16:21:14;11.20;;;3.00;;
16685;SDS011;8456;51.136;4.210;2022-09-17T16:23:42;11.10;;;1.93;;
16685;SDS011;8456;51.136;4.210;2022-09-17T16:26:11;10.63;;;1.93;;
16685;SDS011;8456;51.136;4.210;2022-09-17T16:29:01;9.10;;;2.10;;
16685;SDS011;8456;51.136;4.210;2022-09-17T16:31:29;9.40;;;2.37;;
16685;SDS011;8456;51.136;4.210;2022-09-17T16:33:55;10.27;;;2.33;;
16685;SDS011;8456;51.136;4.210;2022-09-17T16:36:21;4.47;;;1.23;;
16685;SDS011;8456;51.136;4.210;2022-09-17T16:38:47;5.77;;;1.60;;
16685;SDS011;8456;51.136;4.210;2022-09-17T16:41:12;6.37;;;1.43;;
16685;SDS011;8456;51.136;4.210;2022-09-17T16:43:38;8.57;;;1.70;;
16685;SDS011;8456;51.136;4.210;2022-09-17T16:46:08;7.60;;;1.80;;
16685;SDS011;8456;51.136;4.210;2022-09-17T16:48:34;11.70;;;1.87;;
16685;SDS011;8456;51.136;4.210;2022-09-17T16:51:07;8.63;;;1.67;;
16685;SDS011;8456;51.136;4.210;2022-09-17T16:53:34;5.87;;;1.53;;
16685;SDS011;8456;51.136;4.210;2022-09-17T16:56:00;8.30;;;1.63;;
16685;SDS011;8456;51.136;4.210;2022-09-17T16:58:31;8.27;;;1.67;;
16685;SDS011;8456;51.136;4.210;2022-09-17T17:01:04;8.90;;;2.17;;
16685;SDS011;8456;51.136;4.210;2022-09-17T17:03:31;10.47;;;2.33;;
16685;SDS011;8456;51.136;4.210;2022-09-17T17:05:57;10.30;;;2.00;;
16685;SDS011;8456;51.136;4.210;2022-09-17T17:08:22;8.90;;;1.97;;
16685;SDS011;8456;51.136;4.210;2022-09-17T17:10:48;11.47;;;2.47;;
16685;SDS011;8456;51.136;4.210;2022-09-17T17:13:14;11.93;;;2.30;;
16685;SDS011;8456;51.136;4.210;2022-09-17T17:15:41;10.80;;;2.07;;
16685;SDS011;8456;51.136;4.210;2022-09-17T17:18:07;11.93;;;3.13;;
16685;SDS011;8456;51.136;4.210;2022-09-17T17:20:33;18.23;;;3.03;;
16685;SDS011;8456;51.136;4.210;2022-09-17T17:23:00;17.83;;;2.30;;
16685;SDS011;8456;51.136;4.210;2022-09-17T17:25:26;13.80;;;2.70;;
16685;SDS011;8456;51.136;4.210;2022-09-17T17:27:53;10.07;;;2.30;;
16685;SDS011;8456;51.136;4.210;2022-09-17T17:30:19;11.03;;;2.33;;
16685;SDS011;8456;51.136;4.210;2022-09-17T17:32:49;8.57;;;2.47;;
16685;SDS011;8456;51.136;4.210;2022-09-17T17:35:16;13.30;;;2.57;;
16685;SDS011;8456;51.136;4.210;2022-09-17T17:37:43;6.83;;;1.90;;
16685;SDS011;8456;51.136;4.210;2022-09-17T17:40:09;10.27;;;1.57;;
16685;SDS011;8456;51.136;4.210;2022-09-17T17:42:35;6.10;;;1.63;;
16685;SDS011;8456;51.136;4.210;2022-09-17T17:45:08;9.40;;;1.60;;
16685;SDS011;8456;51.136;4.210;2022-09-17T17:47:35;7.30;;;1.97;;
16685;SDS011;8456;51.136;4.210;2022-09-17T17:50:01;5.40;;;1.20;;
16685;SDS011;8456;51.136;4.210;2022-09-17T17:52:27;6.17;;;1.30;;
16685;SDS011;8456;51.136;4.210;2022-09-17T17:54:53;9.23;;;1.50;;
16685;SDS011;8456;51.136;4.210;2022-09-17T17:57:18;6.73;;;1.50;;
16685;SDS011;8456;51.136;4.210;2022-09-17T17:59:44;5.00;;;1.20;;
16685;SDS011;8456;51.136;4.210;2022-09-17T18:02:10;5.40;;;1.23;;
16685;SDS011;8456;51.136;4.210;2022-09-17T18:04:36;4.40;;;1.33;;
16685;SDS011;8456;51.136;4.210;2022-09-17T18:07:02;4.33;;;1.20;;
16685;SDS011;8456;51.136;4.210;2022-09-17T18:09:28;3.40;;;1.43;;
16685;SDS011;8456;51.136;4.210;2022-09-17T18:11:54;9.50;;;2.03;;
16685;SDS011;8456;51.136;4.210;2022-09-17T18:14:20;5.37;;;2.03;;
16685;SDS011;8456;51.136;4.210;2022-09-17T18:16:47;7.60;;;1.97;;
16685;SDS011;8456;51.136;4.210;2022-09-17T18:19:13;10.10;;;2.13;;
16685;SDS011;8456;51.136;4.210;2022-09-17T18:21:39;8.97;;;2.40;;
16685;SDS011;8456;51.136;4.210;2022-09-17T18:24:05;7.33;;;1.80;;
16685;SDS011;8456;51.136;4.210;2022-09-17T18:26:31;8.80;;;3.00;;
16685;SDS011;8456;51.136;4.210;2022-09-17T18:28:58;12.07;;;2.73;;
16685;SDS011;8456;51.136;4.210;2022-09-17T18:34:01;9.43;;;2.53;;
16685;SDS011;8456;51.136;4.210;2022-09-17T18:36:30;10.87;;;2.60;;
16685;SDS011;8456;51.136;4.210;2022-09-17T18:38:58;6.93;;;2.53;;
16685;SDS011;8456;51.136;4.210;2022-09-17T18:41:26;9.10;;;3.80;;
16685;SDS011;8456;51.136;4.210;2022-09-17T18:43:53;7.50;;;2.97;;
16685;SDS011;8456;51.136;4.210;2022-09-17T18:46:19;10.70;;;3.50;;
16685;SDS011;8456;51.136;4.210;2022-09-17T18:48:45;7.87;;;2.30;;
16685;SDS011;8456;51.136;4.210;2022-09-17T18:51:15;10.77;;;2.77;;